Time;durP1;ratioP1;P1;durP2;ratioP2;P2;SDS_P1;SDS_P2;PMS_P1;PMS_P2;Temp;Humidity;BMP_temperature;BMP_pressure;BME280_temperature;BME280_humidity;BME280_pressure;Samples;Min_cycle;Max_cycle;Signal;HPM_P1;HPM_P2
2023/08/06 00:02:20;;;;;;;;;0.00;0.00;;;;;;;;5125490;27;47045;-74
2023/08/06 00:04:45;;;;;;;;;0.67;0.00;;;;;;;;5125907;27;45294;-74
2023/08/06 00:07:10;;;;;;;;;0.00;0.00;;;;;;;;5125589;27;45355;-73
2023/08/06 00:09:36;;;;;;;;;0.00;0.00;;;;;;;;5125685;27;45375;-73
2023/08/06 00:12:01;;;;;;;;;0.00;0.00;;;;;;;;5125474;27;47226;-73
2023/08/06 00:14:26;;;;;;;;;0.00;0.00;;;;;;;;5125570;27;45333;-74
2023/08/06 00:16:51;;;;;;;;;0.00;0.00;;;;;;;;5125636;27;45371;-75
2023/08/06 00:19:16;;;;;;;;;0.00;0.00;;;;;;;;5125375;27;45490;-74
2023/08/06 00:21:42;;;;;;;;;0.00;0.00;;;;;;;;5125338;27;48150;-74
2023/08/06 00:24:07;;;;;;;;;0.00;0.00;;;;;;;;5125576;27;45435;-74
2023/08/06 00:26:32;;;;;;;;;0.00;0.00;;;;;;;;5144334;27;45339;-74
2023/08/06 00:28:57;;;;;;;;;0.00;0.00;;;;;;;;5119370;27;47568;-75
2023/08/06 00:31:22;;;;;;;;;0.00;0.00;;;;;;;;5104558;27;46351;-74
2023/08/06 00:33:48;;;;;;;;;0.00;0.00;;;;;;;;5104774;27;45374;-75
2023/08/06 00:36:13;;;;;;;;;0.00;0.00;;;;;;;;5104418;27;45370;-75
2023/08/06 00:38:38;;;;;;;;;0.00;0.00;;;;;;;;5104328;27;46948;-74
2023/08/06 00:41:04;;;;;;;;;0.00;0.00;;;;;;;;5104277;27;47158;-75
2023/08/06 00:43:29;;;;;;;;;0.00;0.00;;;;;;;;5104328;27;45259;-74
2023/08/06 00:45:55;;;;;;;;;0.00;0.00;;;;;;;;5104508;27;45341;-74
2023/08/06 00:48:21;;;;;;;;;0.00;0.00;;;;;;;;5086910;27;47421;-75
2023/08/06 00:50:46;;;;;;;;;0.00;0.00;;;;;;;;5104112;27;47050;-74
2023/08/06 00:53:11;;;;;;;;;0.00;0.00;;;;;;;;5104237;27;45262;-74
2023/08/06 00:55:37;;;;;;;;;0.00;0.00;;;;;;;;5104092;27;45237;-74
2023/08/06 00:58:02;;;;;;;;;0.00;0.00;;;;;;;;5103619;27;45744;-74
2023/08/06 01:00:28;;;;;;;;;0.00;0.00;;;;;;;;5102527;27;48251;-74
2023/08/06 01:02:53;;;;;;;;;0.00;0.00;;;;;;;;5103811;27;45342;-75
2023/08/06 01:05:20;;;;;;;;;0.00;0.00;;;;;;;;5103223;27;45312;-75
2023/08/06 01:07:51;;;;;;;;;0.00;0.00;;;;;;;;5103777;27;45808;-74
2023/08/06 01:10:27;;;;;;;;;0.00;0.00;;;;;;;;5103788;27;46987;-74
2023/08/06 01:13:11;;;;;;;;;0.00;0.00;;;;;;;;5103457;27;45250;-74
2023/08/06 01:15:41;;;;;;;;;0.00;0.00;;;;;;;;5103579;27;45188;-74
2023/08/06 01:18:06;;;;;;;;;0.00;0.00;;;;;;;;5102392;27;45373;-74
2023/08/06 01:20:31;;;;;;;;;0.00;0.00;;;;;;;;5103585;27;47472;-75
2023/08/06 01:22:57;;;;;;;;;0.00;0.00;;;;;;;;5103705;27;45392;-75
2023/08/06 01:25:27;;;;;;;;;0.00;0.00;;;;;;;;5104091;27;45347;-74
2023/08/06 01:27:54;;;;;;;;;1.00;1.00;;;;;;;;5103497;27;45855;-74
2023/08/06 01:30:26;;;;;;;;;0.00;0.00;;;;;;;;5120857;27;47664;-75
2023/08/06 01:32:56;;;;;;;;;0.00;0.00;;;;;;;;5124411;27;45249;-75
2023/08/06 01:35:22;;;;;;;;;0.00;0.00;;;;;;;;5124134;27;45427;-75
2023/08/06 01:37:48;;;;;;;;;0.00;0.00;;;;;;;;5124155;27;46866;-75
2023/08/06 01:40:13;;;;;;;;;0.00;0.00;;;;;;;;5123119;27;46955;-75
2023/08/06 01:42:39;;;;;;;;;0.67;0.00;;;;;;;;5123327;27;45275;-75
2023/08/06 01:45:05;;;;;;;;;0.00;0.00;;;;;;;;5124391;27;45247;-75
2023/08/06 01:47:30;;;;;;;;;0.50;0.00;;;;;;;;5124137;27;45566;-75
2023/08/06 01:49:56;;;;;;;;;0.00;0.00;;;;;;;;5123922;27;46916;-75
2023/08/06 01:52:21;;;;;;;;;0.50;0.50;;;;;;;;5123873;27;45291;-75
2023/08/06 01:54:46;;;;;;;;;0.25;0.25;;;;;;;;5124238;27;45263;-75
2023/08/06 01:57:11;;;;;;;;;0.00;0.00;;;;;;;;5142463;27;45394;-75
2023/08/06 01:59:36;;;;;;;;;0.67;0.00;;;;;;;;5123879;27;47917;-75
2023/08/06 02:02:02;;;;;;;;;0.00;0.00;;;;;;;;5124001;27;45199;-75
2023/08/06 02:04:28;;;;;;;;;1.00;0.00;;;;;;;;5123848;27;45275;-75
2023/08/06 02:06:53;;;;;;;;;1.00;1.00;;;;;;;;5123667;27;45617;-75
2023/08/06 02:09:18;;;;;;;;;0.33;0.33;;;;;;;;5123666;27;47080;-75
2023/08/06 02:11:43;;;;;;;;;0.67;0.67;;;;;;;;5123803;27;45333;-75
2023/08/06 02:14:08;;;;;;;;;1.33;1.33;;;;;;;;5123614;27;45284;-76
2023/08/06 02:16:34;;;;;;;;;1.00;1.00;;;;;;;;5123492;27;45674;-74
2023/08/06 02:18:59;;;;;;;;;0.33;0.33;;;;;;;;5122083;27;46814;-74
2023/08/06 02:21:24;;;;;;;;;2.00;0.67;;;;;;;;5122700;27;45279;-74
2023/08/06 02:23:49;;;;;;;;;1.00;1.00;;;;;;;;5123628;27;45349;-75
2023/08/06 02:26:14;;;;;;;;;1.00;1.00;;;;;;;;5142170;27;45503;-75
2023/08/06 02:28:40;;;;;;;;;2.00;2.00;;;;;;;;5119731;27;47926;-75
2023/08/06 02:31:06;;;;;;;;;2.67;2.67;;;;;;;;5102830;27;45970;-74
2023/08/06 02:33:31;;;;;;;;;1.00;1.00;;;;;;;;5102777;27;45419;-75
2023/08/06 02:36:01;;;;;;;;;2.67;2.67;;;;;;;;5102013;27;45891;-74
2023/08/06 02:38:26;;;;;;;;;0.67;0.67;;;;;;;;5121292;27;45706;-75
2023/08/06 02:40:51;;;;;;;;;2.00;1.67;;;;;;;;5101326;27;45266;-75
2023/08/06 02:43:16;;;;;;;;;2.00;2.00;;;;;;;;5102579;27;45289;-74
2023/08/06 02:45:42;;;;;;;;;1.00;1.00;;;;;;;;5102552;27;46493;-74
2023/08/06 02:48:07;;;;;;;;;1.67;1.67;;;;;;;;5102342;27;46212;-75
2023/08/06 02:50:37;;;;;;;;;2.00;2.00;;;;;;;;5102362;27;45247;-75
2023/08/06 02:53:02;;;;;;;;;1.00;1.00;;;;;;;;5101733;27;45381;-74
2023/08/06 02:55:28;;;;;;;;;3.00;2.00;;;;;;;;5120035;27;45329;-74
2023/08/06 02:57:53;;;;;;;;;0.00;0.00;;;;;;;;5100783;27;47444;-74
2023/08/06 03:00:18;;;;;;;;;1.33;1.33;;;;;;;;5102332;27;45711;-74
2023/08/06 03:02:43;;;;;;;;;2.33;2.33;;;;;;;;5102536;27;45428;-73
2023/08/06 03:05:09;;;;;;;;;4.33;3.00;;;;;;;;5102137;27;46504;-73
2023/08/06 03:07:36;;;;;;;;;5.00;3.33;;;;;;;;5102127;27;47167;-73
2023/08/06 03:10:02;;;;;;;;;3.00;3.00;;;;;;;;5102189;27;45260;-73
2023/08/06 03:12:27;;;;;;;;;2.00;2.00;;;;;;;;5102144;27;45402;-74
2023/08/06 03:14:52;;;;;;;;;1.00;1.00;;;;;;;;5101819;27;46853;-74
2023/08/06 03:17:17;;;;;;;;;4.00;2.67;;;;;;;;5101197;27;48217;-74
2023/08/06 03:19:42;;;;;;;;;2.67;2.00;;;;;;;;5101944;27;45361;-74
2023/08/06 03:22:08;;;;;;;;;2.00;2.00;;;;;;;;5102199;27;45507;-74
2023/08/06 03:24:33;;;;;;;;;3.00;2.33;;;;;;;;5101963;27;45631;-74
2023/08/06 03:26:58;;;;;;;;;2.00;2.00;;;;;;;;5101774;27;45326;-75
2023/08/06 03:29:23;;;;;;;;;0.00;0.00;;;;;;;;5112437;27;45293;-74
2023/08/06 03:31:49;;;;;;;;;4.33;3.33;;;;;;;;5126472;27;45288;-74
2023/08/06 03:34:14;;;;;;;;;4.00;4.00;;;;;;;;5126379;27;46938;-75
2023/08/06 03:36:39;;;;;;;;;5.33;3.33;;;;;;;;5125601;27;46903;-74
2023/08/06 03:39:04;;;;;;;;;1.67;1.00;;;;;;;;5126283;27;45496;-74
2023/08/06 03:41:30;;;;;;;;;3.33;3.00;;;;;;;;5125838;27;45515;-74
2023/08/06 03:43:55;;;;;;;;;4.33;4.00;;;;;;;;5125884;27;47209;-75
2023/08/06 03:46:20;;;;;;;;;3.00;3.00;;;;;;;;5114736;27;45499;-75
2023/08/06 03:48:45;;;;;;;;;2.67;2.67;;;;;;;;5105383;27;45379;-75
2023/08/06 03:51:10;;;;;;;;;5.00;5.00;;;;;;;;5105233;27;45375;-74
2023/08/06 03:53:36;;;;;;;;;2.33;2.00;;;;;;;;5105115;27;46152;-75
2023/08/06 03:56:01;;;;;;;;;3.33;3.33;;;;;;;;5105048;27;47518;-76
2023/08/06 03:58:26;;;;;;;;;2.00;2.00;;;;;;;;5105121;27;45298;-75
2023/08/06 04:00:59;;;;;;;;;7.00;5.33;;;;;;;;5105171;27;45368;-75
2023/08/06 04:03:24;;;;;;;;;4.67;4.00;;;;;;;;5105031;27;45729;-74
2023/08/06 04:05:49;;;;;;;;;3.67;3.67;;;;;;;;5104757;27;48015;-75
2023/08/06 04:08:14;;;;;;;;;5.00;3.67;;;;;;;;5105084;27;45393;-75
2023/08/06 04:10:40;;;;;;;;;5.00;5.00;;;;;;;;5105208;27;45304;-75
2023/08/06 04:13:05;;;;;;;;;4.67;3.67;;;;;;;;5104728;27;47203;-75
2023/08/06 04:15:33;;;;;;;;;4.67;4.00;;;;;;;;5104747;27;48337;-75
2023/08/06 04:17:58;;;;;;;;;5.00;4.33;;;;;;;;5105127;27;45560;-75
2023/08/06 04:20:23;;;;;;;;;8.00;6.33;;;;;;;;5104678;27;45318;-74
2023/08/06 04:22:48;;;;;;;;;6.00;4.33;;;;;;;;5104913;27;45389;-75
2023/08/06 04:25:14;;;;;;;;;6.33;5.67;;;;;;;;5104708;27;48151;-75
2023/08/06 04:27:41;;;;;;;;;3.33;3.00;;;;;;;;5104640;27;45344;-74
2023/08/06 04:30:07;;;;;;;;;3.33;3.33;;;;;;;;5120263;27;45239;-75
2023/08/06 04:32:32;;;;;;;;;4.67;4.00;;;;;;;;5125262;27;45746;-75
2023/08/06 04:34:57;;;;;;;;;5.00;5.00;;;;;;;;5125146;27;48201;-75
2023/08/06 04:37:22;;;;;;;;;5.00;4.67;;;;;;;;5125081;27;45229;-75
2023/08/06 04:39:47;;;;;;;;;5.00;5.00;;;;;;;;5125415;27;45487;-75
2023/08/06 04:42:13;;;;;;;;;5.00;5.00;;;;;;;;5123978;27;45336;-74
2023/08/06 04:44:38;;;;;;;;;5.00;5.00;;;;;;;;5125086;27;46262;-75
2023/08/06 04:47:03;;;;;;;;;4.00;4.00;;;;;;;;5125101;27;45253;-74
2023/08/06 04:49:28;;;;;;;;;3.33;3.33;;;;;;;;5124685;27;45324;-74
2023/08/06 04:51:53;;;;;;;;;5.00;5.00;;;;;;;;5123853;27;45883;-75
2023/08/06 04:54:19;;;;;;;;;5.00;4.00;;;;;;;;5124174;27;46692;-75
2023/08/06 04:56:44;;;;;;;;;4.00;4.00;;;;;;;;5124761;27;45335;-74
2023/08/06 04:59:09;;;;;;;;;5.00;5.00;;;;;;;;5124488;27;45360;-75
2023/08/06 05:01:35;;;;;;;;;5.00;5.00;;;;;;;;5123754;27;45328;-74
2023/08/06 05:04:00;;;;;;;;;6.33;5.67;;;;;;;;5124291;27;45420;-74
2023/08/06 05:06:25;;;;;;;;;7.00;6.33;;;;;;;;5124701;27;45354;-74
2023/08/06 05:08:50;;;;;;;;;6.00;6.00;;;;;;;;5124787;27;45372;-75
2023/08/06 05:11:15;;;;;;;;;4.00;4.00;;;;;;;;5124858;27;46864;-74
2023/08/06 05:13:41;;;;;;;;;5.00;5.00;;;;;;;;5124244;27;46697;-74
2023/08/06 05:16:06;;;;;;;;;3.67;3.67;;;;;;;;5124572;27;45402;-74
2023/08/06 05:18:31;;;;;;;;;5.33;4.67;;;;;;;;5124777;27;45304;-75
2023/08/06 05:20:57;;;;;;;;;6.67;6.00;;;;;;;;5124404;27;45573;-75
2023/08/06 05:23:22;;;;;;;;;4.67;4.67;;;;;;;;5124425;27;45622;-75
2023/08/06 05:25:47;;;;;;;;;6.00;5.00;;;;;;;;5124510;27;45349;-75
2023/08/06 05:28:12;;;;;;;;;2.33;2.00;;;;;;;;5124156;27;45309;-75
2023/08/06 05:30:41;;;;;;;;;5.00;4.00;;;;;;;;5104279;27;45731;-75
2023/08/06 05:33:06;;;;;;;;;3.33;3.33;;;;;;;;5103367;27;48433;-75
2023/08/06 05:35:31;;;;;;;;;5.00;5.00;;;;;;;;5103266;27;45452;-75
2023/08/06 05:37:56;;;;;;;;;6.67;5.33;;;;;;;;5103579;27;45306;-74
2023/08/06 05:40:22;;;;;;;;;3.67;3.67;;;;;;;;5103450;27;45715;-75
2023/08/06 05:42:47;;;;;;;;;6.00;6.00;;;;;;;;5102918;27;48008;-75
2023/08/06 05:45:12;;;;;;;;;5.00;4.00;;;;;;;;5103369;27;45343;-75
2023/08/06 05:47:38;;;;;;;;;4.00;4.00;;;;;;;;5103639;27;45425;-74
2023/08/06 05:50:03;;;;;;;;;5.33;5.00;;;;;;;;5102803;27;45785;-75
2023/08/06 05:52:28;;;;;;;;;6.00;6.00;;;;;;;;5102772;27;45403;-76
2023/08/06 05:54:55;;;;;;;;;40.33;34.00;;;;;;;;5103027;27;45354;-75
2023/08/06 05:57:20;;;;;;;;;7.00;7.00;;;;;;;;5102149;27;45416;-75
2023/08/06 05:59:45;;;;;;;;;5.00;5.00;;;;;;;;5103103;27;47201;-76
2023/08/06 06:02:10;;;;;;;;;5.00;4.00;;;;;;;;5103094;27;47277;-76
2023/08/06 06:04:36;;;;;;;;;5.00;4.67;;;;;;;;5103232;27;45307;-75
2023/08/06 06:07:02;;;;;;;;;6.00;6.00;;;;;;;;5103253;27;45339;-75
2023/08/06 06:09:27;;;;;;;;;4.67;4.67;;;;;;;;5102913;27;45485;-75
2023/08/06 06:11:52;;;;;;;;;4.67;3.00;;;;;;;;5103095;27;47665;-75
2023/08/06 06:14:18;;;;;;;;;4.33;4.33;;;;;;;;5102676;27;45299;-75
2023/08/06 06:16:44;;;;;;;;;3.33;3.00;;;;;;;;5103024;27;45422;-75
2023/08/06 06:19:09;;;;;;;;;4.33;3.67;;;;;;;;5121373;27;45269;-75
2023/08/06 06:21:34;;;;;;;;;3.00;3.00;;;;;;;;5102724;27;46573;-75
2023/08/06 06:23:59;;;;;;;;;2.67;2.67;;;;;;;;5102922;27;45268;-75
2023/08/06 06:26:25;;;;;;;;;3.33;3.33;;;;;;;;5102981;27;45274;-75
2023/08/06 06:28:50;;;;;;;;;4.33;3.33;;;;;;;;5095188;27;46393;-75
2023/08/06 06:31:15;;;;;;;;;4.00;4.00;;;;;;;;5123540;27;46596;-75
2023/08/06 06:33:40;;;;;;;;;4.00;3.00;;;;;;;;5123406;27;45860;-75
2023/08/06 06:36:07;;;;;;;;;3.00;3.00;;;;;;;;5122943;27;45223;-74
2023/08/06 06:38:32;;;;;;;;;2.00;2.00;;;;;;;;5122941;27;45436;-75
2023/08/06 06:40:58;;;;;;;;;2.33;2.33;;;;;;;;5122959;27;47963;-75
2023/08/06 06:43:23;;;;;;;;;4.00;1.33;;;;;;;;5123165;27;45303;-74
2023/08/06 06:45:58;;;;;;;;;3.00;3.00;;;;;;;;5123289;27;45272;-75
2023/08/06 06:48:27;;;;;;;;;2.00;2.00;;;;;;;;5123380;27;45785;-74
2023/08/06 06:50:53;;;;;;;;;3.67;2.67;;;;;;;;5122907;27;46357;-74
2023/08/06 06:53:18;;;;;;;;;4.33;4.33;;;;;;;;5123034;27;45346;-74
2023/08/06 06:55:43;;;;;;;;;2.33;2.33;;;;;;;;5122658;27;45296;-73
2023/08/06 06:58:08;;;;;;;;;3.00;1.00;;;;;;;;5122931;27;46068;-72
2023/08/06 07:00:35;;;;;;;;;1.00;1.00;;;;;;;;5114558;27;47449;-73
2023/08/06 07:03:00;;;;;;;;;3.00;3.00;;;;;;;;5101889;27;45325;-74
2023/08/06 07:05:26;;;;;;;;;2.00;2.00;;;;;;;;5107528;27;45349;-73
2023/08/06 07:07:52;;;;;;;;;3.00;3.00;;;;;;;;5109106;27;46660;-72
2023/08/06 07:10:17;;;;;;;;;3.00;2.00;;;;;;;;5091664;27;48330;-72
2023/08/06 07:12:42;;;;;;;;;1.00;1.00;;;;;;;;5108848;27;45329;-72
2023/08/06 07:15:07;;;;;;;;;2.00;2.00;;;;;;;;5108914;27;45348;-73
2023/08/06 07:17:33;;;;;;;;;1.33;1.33;;;;;;;;5108873;27;45799;-73
2023/08/06 07:19:58;;;;;;;;;4.00;2.00;;;;;;;;5091681;27;48268;-73
2023/08/06 07:22:23;;;;;;;;;4.00;4.00;;;;;;;;5108654;27;45329;-73
2023/08/06 07:24:48;;;;;;;;;2.00;1.67;;;;;;;;5108842;27;45306;-74
2023/08/06 07:27:14;;;;;;;;;2.00;2.00;;;;;;;;5108643;27;45476;-72
2023/08/06 07:29:39;;;;;;;;;2.00;2.00;;;;;;;;5120277;27;46428;-72
2023/08/06 07:32:06;;;;;;;;;1.00;1.00;;;;;;;;5129556;27;45376;-72
2023/08/06 07:34:31;;;;;;;;;1.00;1.00;;;;;;;;5129627;27;45380;-72
2023/08/06 07:36:56;;;;;;;;;3.00;2.00;;;;;;;;5128895;27;45825;-72
2023/08/06 07:39:22;;;;;;;;;1.67;1.67;;;;;;;;5129337;27;46249;-72
2023/08/06 07:41:47;;;;;;;;;2.00;2.00;;;;;;;;5127908;27;45354;-72
2023/08/06 07:44:13;;;;;;;;;2.00;2.00;;;;;;;;5126875;27;45330;-72
2023/08/06 07:46:39;;;;;;;;;2.67;1.00;;;;;;;;5108158;27;45674;-72
2023/08/06 07:49:04;;;;;;;;;2.00;1.33;;;;;;;;5108388;27;47784;-72
2023/08/06 07:51:30;;;;;;;;;2.00;2.00;;;;;;;;5090934;27;45603;-72
2023/08/06 07:53:55;;;;;;;;;2.00;2.00;;;;;;;;5108280;27;45410;-72
2023/08/06 07:56:21;;;;;;;;;2.00;2.00;;;;;;;;5107936;27;45660;-72
2023/08/06 07:58:46;;;;;;;;;1.00;1.00;;;;;;;;5108001;27;46719;-72
2023/08/06 08:01:12;;;;;;;;;1.33;1.33;;;;;;;;5108040;27;45828;-72
2023/08/06 08:03:37;;;;;;;;;2.00;2.00;;;;;;;;5108337;27;45361;-72
2023/08/06 08:06:02;;;;;;;;;2.00;2.00;;;;;;;;5107540;27;46538;-72
2023/08/06 08:08:27;;;;;;;;;2.00;2.00;;;;;;;;5108027;27;45334;-72
2023/08/06 08:10:55;;;;;;;;;3.00;2.33;;;;;;;;5107996;27;45323;-72
2023/08/06 08:13:20;;;;;;;;;2.67;2.67;;;;;;;;5107820;27;45393;-72
2023/08/06 08:15:45;;;;;;;;;1.00;1.00;;;;;;;;5105069;27;45779;-72
2023/08/06 08:18:10;;;;;;;;;2.00;2.00;;;;;;;;5104394;27;45429;-72
2023/08/06 08:20:35;;;;;;;;;3.00;2.67;;;;;;;;5104080;27;45480;-72
2023/08/06 08:23:01;;;;;;;;;2.00;2.00;;;;;;;;5123415;27;45412;-72
2023/08/06 08:25:27;;;;;;;;;3.00;3.00;;;;;;;;5123205;27;45341;-73
2023/08/06 08:27:53;;;;;;;;;1.67;1.67;;;;;;;;5103874;27;46831;-72
2023/08/06 08:30:18;;;;;;;;;4.00;3.33;;;;;;;;5121815;27;45277;-74
2023/08/06 08:32:43;;;;;;;;;2.00;2.00;;;;;;;;5125000;27;45363;-73
2023/08/06 08:35:09;;;;;;;;;3.33;1.00;;;;;;;;5125143;27;45543;-73
2023/08/06 08:37:34;;;;;;;;;3.00;3.00;;;;;;;;5124812;27;45447;-74
2023/08/06 08:40:00;;;;;;;;;3.67;2.67;;;;;;;;5125270;27;45358;-73
2023/08/06 08:42:26;;;;;;;;;0.67;0.67;;;;;;;;5121248;27;45175;-75
2023/08/06 08:44:52;;;;;;;;;2.33;2.33;;;;;;;;5121735;27;47154;-73
2023/08/06 08:47:17;;;;;;;;;1.33;1.33;;;;;;;;5121370;27;46890;-74
2023/08/06 08:49:43;;;;;;;;;4.00;3.00;;;;;;;;5121358;27;45325;-74
2023/08/06 08:52:11;;;;;;;;;1.33;1.33;;;;;;;;5121130;27;45376;-73
2023/08/06 08:54:37;;;;;;;;;2.33;2.00;;;;;;;;5100668;27;46822;-73
2023/08/06 08:57:03;;;;;;;;;2.33;2.33;;;;;;;;5100014;27;48183;-74
2023/08/06 08:59:28;;;;;;;;;3.00;1.67;;;;;;;;5100060;27;45423;-73
2023/08/06 09:01:54;;;;;;;;;2.00;2.00;;;;;;;;5100703;27;45313;-74
2023/08/06 09:04:20;;;;;;;;;3.00;1.33;;;;;;;;5101404;27;45348;-73
2023/08/06 09:06:50;;;;;;;;;2.00;2.00;;;;;;;;5100175;27;46910;-73
2023/08/06 09:09:19;;;;;;;;;2.33;2.33;;;;;;;;5100265;27;46006;-73
2023/08/06 09:11:45;;;;;;;;;3.33;1.67;;;;;;;;5099891;27;45372;-72
2023/08/06 09:14:11;;;;;;;;;6.00;4.33;;;;;;;;5100105;27;45948;-73
2023/08/06 09:16:36;;;;;;;;;3.67;3.33;;;;;;;;5100348;27;47611;-73
2023/08/06 09:19:17;;;;;;;;;2.00;2.00;;;;;;;;5100393;27;45198;-73
2023/08/06 09:21:43;;;;;;;;;1.00;1.00;;;;;;;;5100289;27;45333;-73
2023/08/06 09:24:12;;;;;;;;;1.00;0.00;;;;;;;;5100184;27;46239;-73
2023/08/06 09:26:38;;;;;;;;;2.00;2.00;;;;;;;;5099789;27;47518;-74
2023/08/06 09:29:07;;;;;;;;;3.00;3.00;;;;;;;;5106449;27;45237;-75
2023/08/06 09:31:46;;;;;;;;;1.67;1.67;;;;;;;;5120959;27;45447;-74
2023/08/06 09:34:15;;;;;;;;;2.00;2.00;;;;;;;;5120940;27;46266;-75
2023/08/06 09:36:41;;;;;;;;;4.00;4.00;;;;;;;;5120126;27;46613;-74
2023/08/06 09:39:13;;;;;;;;;4.00;4.00;;;;;;;;5120403;27;45765;-75
2023/08/06 09:41:39;;;;;;;;;2.00;2.00;;;;;;;;5120400;27;45396;-75
2023/08/06 09:44:04;;;;;;;;;3.00;2.00;;;;;;;;5120442;27;45229;-75
2023/08/06 09:46:31;;;;;;;;;2.00;2.00;;;;;;;;5120618;27;45328;-75
2023/08/06 09:48:57;;;;;;;;;3.00;3.00;;;;;;;;5120580;27;45371;-74
2023/08/06 09:51:22;;;;;;;;;1.00;1.00;;;;;;;;5119958;27;45482;-75
2023/08/06 09:53:48;;;;;;;;;3.00;3.00;;;;;;;;5120296;27;46077;-75
2023/08/06 09:56:13;;;;;;;;;3.00;3.00;;;;;;;;5120417;27;45615;-74
2023/08/06 09:58:39;;;;;;;;;1.00;1.00;;;;;;;;5120173;27;45316;-74
2023/08/06 10:01:05;;;;;;;;;3.00;2.00;;;;;;;;5120403;27;45545;-75
2023/08/06 10:03:31;;;;;;;;;2.00;2.00;;;;;;;;5120209;27;46168;-74
2023/08/06 10:05:57;;;;;;;;;1.25;1.25;;;;;;;;5120274;27;47663;-75
2023/08/06 10:08:23;;;;;;;;;1.00;1.00;;;;;;;;5113792;27;45247;-75
2023/08/06 10:10:48;;;;;;;;;1.00;1.00;;;;;;;;5099633;27;45361;-74
2023/08/06 10:13:13;;;;;;;;;3.00;3.00;;;;;;;;5099120;27;46605;-75
2023/08/06 10:15:39;;;;;;;;;2.00;2.00;;;;;;;;5098282;27;45524;-75
2023/08/06 10:18:06;;;;;;;;;2.67;2.67;;;;;;;;5099671;27;45353;-74
2023/08/06 10:20:35;;;;;;;;;1.00;1.00;;;;;;;;5099530;27;45407;-75
2023/08/06 10:23:04;;;;;;;;;2.50;2.50;;;;;;;;5099584;27;47092;-75
2023/08/06 10:25:40;;;;;;;;;2.00;2.00;;;;;;;;5099422;27;47472;-75
2023/08/06 10:28:09;;;;;;;;;1.67;1.00;;;;;;;;5099167;27;45193;-75
2023/08/06 10:30:41;;;;;;;;;3.00;3.00;;;;;;;;5118832;27;45347;-75
2023/08/06 10:33:06;;;;;;;;;2.00;2.00;;;;;;;;5119966;27;45668;-75
2023/08/06 10:35:31;;;;;;;;;2.00;2.00;;;;;;;;5119480;27;47694;-75
2023/08/06 10:38:03;;;;;;;;;3.75;2.50;;;;;;;;5118371;27;45282;-75
2023/08/06 10:40:30;;;;;;;;;1.00;1.00;;;;;;;;5119376;27;45223;-75
2023/08/06 10:42:56;;;;;;;;;2.00;2.00;;;;;;;;5122805;27;45727;-75
2023/08/06 10:45:24;;;;;;;;;2.00;1.00;;;;;;;;5123323;27;45427;-75
2023/08/06 10:47:49;;;;;;;;;2.25;2.25;;;;;;;;5123266;27;45351;-74
2023/08/06 10:50:18;;;;;;;;;2.00;2.00;;;;;;;;5122966;27;45321;-74
2023/08/06 10:52:44;;;;;;;;;2.75;1.50;;;;;;;;5122987;27;45664;-75
2023/08/06 10:55:10;;;;;;;;;2.25;2.25;;;;;;;;5123110;27;46894;-75
2023/08/06 10:57:35;;;;;;;;;2.00;2.00;;;;;;;;5122757;27;45355;-75
2023/08/06 11:00:00;;;;;;;;;2.75;2.50;;;;;;;;5123010;27;45221;-74
2023/08/06 11:02:25;;;;;;;;;1.25;1.00;;;;;;;;5122949;27;45347;-75
2023/08/06 11:04:51;;;;;;;;;3.00;2.25;;;;;;;;5122877;27;47021;-75
2023/08/06 11:07:16;;;;;;;;;2.75;2.75;;;;;;;;5122652;27;45408;-75
2023/08/06 11:09:42;;;;;;;;;2.00;2.00;;;;;;;;5123096;27;45459;-74
2023/08/06 11:12:10;;;;;;;;;0.00;0.00;;;;;;;;5122590;27;45323;-75
2023/08/06 11:14:36;;;;;;;;;2.00;2.00;;;;;;;;5122856;27;46792;-75
2023/08/06 11:17:01;;;;;;;;;1.00;1.00;;;;;;;;5122299;27;45266;-75
2023/08/06 11:19:26;;;;;;;;;3.25;2.00;;;;;;;;5122846;27;45295;-75
2023/08/06 11:21:51;;;;;;;;;1.50;0.00;;;;;;;;5122622;27;45392;-75
2023/08/06 11:24:17;;;;;;;;;1.00;1.00;;;;;;;;5122673;27;48034;-76
2023/08/06 11:26:44;;;;;;;;;0.75;0.75;;;;;;;;5141076;27;45251;-75
2023/08/06 11:29:09;;;;;;;;;1.50;1.00;;;;;;;;5115376;27;45305;-75
2023/08/06 11:31:35;;;;;;;;;0.50;0.50;;;;;;;;5102041;27;45812;-75
2023/08/06 11:34:01;;;;;;;;;1.00;0.00;;;;;;;;5101567;27;48153;-75
2023/08/06 11:36:30;;;;;;;;;2.00;2.00;;;;;;;;5101444;27;45385;-75
2023/08/06 11:38:56;;;;;;;;;0.00;0.00;;;;;;;;5101159;27;45351;-76
2023/08/06 11:41:21;;;;;;;;;1.75;1.75;;;;;;;;5100928;27;45963;-75
2023/08/06 11:43:46;;;;;;;;;0.00;0.00;;;;;;;;5101615;27;46328;-75
2023/08/06 11:46:12;;;;;;;;;1.00;1.00;;;;;;;;5101838;27;45390;-75
2023/08/06 11:48:54;;;;;;;;;0.50;0.50;;;;;;;;5102028;27;45369;-75
2023/08/06 11:51:22;;;;;;;;;1.00;1.00;;;;;;;;5104062;27;46728;-76
2023/08/06 11:53:50;;;;;;;;;1.00;1.00;;;;;;;;5105148;27;46667;-75
2023/08/06 11:56:16;;;;;;;;;0.00;0.00;;;;;;;;5105181;27;45480;-74
2023/08/06 11:58:42;;;;;;;;;1.00;1.00;;;;;;;;5105264;27;45309;-75
2023/08/06 12:01:07;;;;;;;;;1.25;1.25;;;;;;;;5104746;27;45768;-75
2023/08/06 12:03:32;;;;;;;;;0.00;0.00;;;;;;;;5103814;27;47567;-75
2023/08/06 12:05:58;;;;;;;;;3.00;1.25;;;;;;;;5105109;27;45378;-75
2023/08/06 12:08:26;;;;;;;;;1.00;1.00;;;;;;;;5105348;27;45333;-74
2023/08/06 12:10:53;;;;;;;;;1.00;1.00;;;;;;;;5104842;27;45677;-74
2023/08/06 12:13:18;;;;;;;;;2.00;1.25;;;;;;;;5104786;27;47359;-74
2023/08/06 12:15:44;;;;;;;;;0.00;0.00;;;;;;;;5105012;27;45363;-75
2023/08/06 12:18:09;;;;;;;;;0.50;0.50;;;;;;;;5105074;27;45333;-74
2023/08/06 12:20:35;;;;;;;;;1.25;1.25;;;;;;;;5104229;27;45558;-74
2023/08/06 12:23:00;;;;;;;;;1.50;1.50;;;;;;;;5104735;27;45412;-75
2023/08/06 12:25:25;;;;;;;;;1.00;1.00;;;;;;;;5105037;27;45310;-75
2023/08/06 12:27:50;;;;;;;;;1.75;1.75;;;;;;;;5104560;27;45454;-75
2023/08/06 12:30:16;;;;;;;;;1.00;1.00;;;;;;;;5121420;27;45797;-75
2023/08/06 12:32:41;;;;;;;;;0.75;0.00;;;;;;;;5125382;27;47725;-74
2023/08/06 12:35:07;;;;;;;;;3.00;2.00;;;;;;;;5125369;27;45332;-75
2023/08/06 12:37:32;;;;;;;;;2.25;2.00;;;;;;;;5125165;27;45329;-75
2023/08/06 12:39:57;;;;;;;;;1.00;1.00;;;;;;;;5125060;27;45577;-75
2023/08/06 12:42:24;;;;;;;;;1.50;1.50;;;;;;;;5123024;27;48168;-74
2023/08/06 12:44:49;;;;;;;;;2.00;2.00;;;;;;;;5123480;27;45416;-75
2023/08/06 12:47:15;;;;;;;;;1.00;1.00;;;;;;;;5125099;27;45288;-74
2023/08/06 12:49:40;;;;;;;;;4.00;3.00;;;;;;;;5125227;27;45880;-75
2023/08/06 12:52:06;;;;;;;;;2.25;1.50;;;;;;;;5124591;27;45301;-76
2023/08/06 12:54:36;;;;;;;;;2.75;2.00;;;;;;;;5125103;27;45303;-75
2023/08/06 12:57:02;;;;;;;;;2.00;2.00;;;;;;;;5124735;27;45371;-75
2023/08/06 12:59:27;;;;;;;;;1.00;1.00;;;;;;;;5124928;27;45317;-75
2023/08/06 13:01:52;;;;;;;;;2.25;2.25;;;;;;;;5124055;27;47034;-75
2023/08/06 13:04:17;;;;;;;;;3.25;3.25;;;;;;;;5124734;27;46036;-74
2023/08/06 13:06:43;;;;;;;;;2.00;2.00;;;;;;;;5124596;27;45359;-75
2023/08/06 13:09:11;;;;;;;;;2.75;2.00;;;;;;;;5143501;27;45357;-75
2023/08/06 13:11:37;;;;;;;;;0.75;0.50;;;;;;;;5124341;27;46445;-75
2023/08/06 13:14:07;;;;;;;;;2.00;2.00;;;;;;;;5124546;27;45610;-75
2023/08/06 13:16:33;;;;;;;;;1.50;1.00;;;;;;;;5124622;27;45345;-75
2023/08/06 13:18:58;;;;;;;;;1.00;1.00;;;;;;;;5124626;27;46155;-75
2023/08/06 13:21:23;;;;;;;;;0.25;0.25;;;;;;;;5124320;27;47853;-75
2023/08/06 13:23:48;;;;;;;;;0.00;0.00;;;;;;;;5124338;27;45481;-75
2023/08/06 13:26:15;;;;;;;;;2.50;2.50;;;;;;;;5124653;27;45263;-75
2023/08/06 13:28:41;;;;;;;;;2.00;2.00;;;;;;;;5120720;27;45724;-75
2023/08/06 13:31:06;;;;;;;;;1.00;1.00;;;;;;;;5103027;27;48014;-75
2023/08/06 13:33:31;;;;;;;;;4.25;4.25;;;;;;;;5103322;27;46032;-75
2023/08/06 13:35:56;;;;;;;;;3.50;3.50;;;;;;;;5103655;27;45311;-74
2023/08/06 13:38:22;;;;;;;;;0.00;0.00;;;;;;;;5103758;27;45433;-75
2023/08/06 13:40:47;;;;;;;;;2.00;2.00;;;;;;;;5103308;27;47778;-75
2023/08/06 13:43:13;;;;;;;;;3.25;2.25;;;;;;;;5103499;27;46245;-75
2023/08/06 13:45:38;;;;;;;;;2.25;2.25;;;;;;;;5103544;27;45376;-75
2023/08/06 13:48:03;;;;;;;;;2.00;2.00;;;;;;;;5103327;27;45973;-75
2023/08/06 13:50:29;;;;;;;;;2.00;2.00;;;;;;;;5103213;27;46354;-75
2023/08/06 13:52:55;;;;;;;;;1.00;1.00;;;;;;;;5103397;27;45373;-75
2023/08/06 13:55:20;;;;;;;;;2.75;2.75;;;;;;;;5103667;27;45392;-75
2023/08/06 13:57:46;;;;;;;;;3.00;2.67;;;;;;;;5102675;27;46837;-75
2023/08/06 14:00:11;;;;;;;;;1.00;1.00;;;;;;;;5103449;27;45534;-75
2023/08/06 14:02:36;;;;;;;;;2.00;2.00;;;;;;;;5121896;27;45327;-75
2023/08/06 14:05:02;;;;;;;;;3.25;2.75;;;;;;;;5103183;27;45301;-75
2023/08/06 14:07:27;;;;;;;;;1.00;1.00;;;;;;;;5103216;27;46122;-75
2023/08/06 14:09:52;;;;;;;;;0.75;0.75;;;;;;;;5103270;27;46617;-74
2023/08/06 14:12:17;;;;;;;;;1.00;1.00;;;;;;;;5102733;27;45345;-75
2023/08/06 14:14:43;;;;;;;;;3.25;3.25;;;;;;;;5101428;27;45306;-76
2023/08/06 14:17:08;;;;;;;;;1.75;1.75;;;;;;;;5102861;27;46022;-74
2023/08/06 14:19:33;;;;;;;;;2.50;2.50;;;;;;;;5102930;27;45334;-75
2023/08/06 14:21:58;;;;;;;;;2.00;2.00;;;;;;;;5102563;27;45823;-75
2023/08/06 14:24:23;;;;;;;;;3.00;3.00;;;;;;;;5102861;27;45327;-75
2023/08/06 14:26:49;;;;;;;;;2.75;2.75;;;;;;;;5102754;27;45503;-75
2023/08/06 14:29:14;;;;;;;;;2.75;2.75;;;;;;;;5110932;27;46342;-74
2023/08/06 14:31:40;;;;;;;;;2.50;2.50;;;;;;;;5123304;27;45381;-75
2023/08/06 14:34:05;;;;;;;;;3.00;1.00;;;;;;;;5123213;27;45340;-75
2023/08/06 14:36:31;;;;;;;;;1.00;1.00;;;;;;;;5123144;27;45405;-75